createdAt,value
2022-08-09T00:01:43.163Z,2.30
2022-08-09T00:04:34.718Z,2.08
2022-08-09T00:07:10.532Z,2.40
2022-08-09T00:09:38.531Z,2.40
2022-08-09T00:12:06.626Z,2.13
2022-08-09T00:14:37.827Z,2.45
2022-08-09T00:17:06.464Z,2.50
2022-08-09T00:19:35.943Z,2.17
2022-08-09T00:22:04.412Z,2.60
2022-08-09T00:24:32.444Z,2.05
2022-08-09T00:27:01.091Z,1.70
2022-08-09T00:29:39.085Z,2.42
2022-08-09T00:32:27.261Z,2.33
2022-08-09T00:34:55.707Z,2.30
2022-08-09T00:37:23.949Z,2.60
2022-08-09T00:40:13.898Z,2.40
2022-08-09T00:44:19.576Z,2.80
2022-08-09T00:45:26.395Z,2.72
2022-08-09T00:47:55.484Z,3.05
2022-08-09T00:50:23.843Z,2.53
2022-08-09T00:52:52.895Z,2.78
2022-08-09T00:56:03.785Z,2.70
2022-08-09T00:58:09.032Z,2.85
2022-08-09T01:00:40.676Z,3.13
2022-08-09T01:03:13.712Z,2.95
2022-08-09T01:06:17.405Z,2.55
2022-08-09T01:09:06.384Z,2.80
2022-08-09T01:11:42.429Z,3.10
2022-08-09T01:14:28.285Z,2.80
2022-08-09T01:17:02.607Z,2.53
2022-08-09T01:20:01.664Z,2.95
2022-08-09T01:24:01.259Z,3.13
2022-08-09T01:26:16.979Z,2.83
2022-08-09T01:28:48.245Z,2.80
2022-08-09T01:32:29.213Z,2.58
2022-08-09T01:34:10.847Z,2.80
2022-08-09T01:36:41.094Z,2.53
2022-08-09T01:39:08.780Z,3.10
2022-08-09T01:41:37.747Z,2.83
2022-08-09T01:44:25.169Z,2.80
2022-08-09T01:46:53.772Z,2.65
2022-08-09T01:49:24.167Z,2.60
2022-08-09T01:51:56.863Z,2.33
2022-08-09T01:54:32.523Z,2.75
2022-08-09T01:57:12.147Z,2.65
2022-08-09T01:59:51.910Z,2.70
2022-08-09T02:02:30.901Z,3.05
2022-08-09T02:05:05.563Z,3.13
2022-08-09T02:08:38.706Z,2.88
2022-08-09T02:10:38.589Z,3.28
2022-08-09T02:13:09.745Z,2.85
2022-08-09T02:15:50.419Z,2.83
2022-08-09T02:18:23.689Z,2.63
2022-08-09T02:21:21.887Z,2.60
2022-08-09T02:23:54.744Z,2.70
2022-08-09T02:26:28.161Z,2.80
2022-08-09T02:29:03.532Z,2.60
2022-08-09T02:31:36.463Z,2.60
2022-08-09T02:34:40.272Z,2.83
2022-08-09T02:37:06.857Z,2.85
2022-08-09T02:39:41.849Z,2.88
2022-08-09T02:42:17.475Z,2.58
2022-08-09T02:44:51.876Z,2.60
2022-08-09T02:47:22.883Z,2.58
2022-08-09T02:50:01.535Z,2.65
2022-08-09T02:52:38.345Z,2.72
2022-08-09T02:55:21.084Z,3.20
2022-08-09T02:58:32.890Z,3.10
2022-08-09T03:00:47.698Z,2.78
2022-08-09T03:04:05.770Z,3.20
2022-08-09T03:06:16.101Z,2.50
2022-08-09T03:08:46.103Z,3.30
2022-08-09T03:11:29.985Z,3.20
2022-08-09T03:14:07.083Z,3.13
2022-08-09T03:16:38.466Z,2.92
2022-08-09T03:19:14.405Z,3.13
2022-08-09T03:21:59.278Z,3.10
2022-08-09T03:24:42.159Z,2.83
2022-08-09T03:27:10.786Z,3.05
2022-08-09T03:29:57.132Z,3.33
2022-08-09T03:32:30.958Z,2.92
2022-08-09T03:35:00.180Z,2.80
2022-08-09T03:37:56.127Z,3.53
2022-08-09T03:40:17.901Z,3.50
2022-08-09T03:42:46.609Z,3.15
2022-08-09T03:45:16.646Z,2.97
2022-08-09T03:48:04.244Z,3.25
2022-08-09T03:50:35.211Z,3.00
2022-08-09T03:53:06.608Z,3.05
2022-08-09T03:55:40.953Z,3.50
2022-08-09T03:58:16.508Z,3.35
2022-08-09T04:00:49.739Z,3.17
2022-08-09T04:03:24.570Z,2.75
2022-08-09T04:06:04.670Z,3.25
2022-08-09T04:08:33.469Z,3.08
2022-08-09T04:11:01.342Z,3.20
2022-08-09T04:14:37.724Z,3.42
2022-08-09T04:16:20.134Z,3.28
2022-08-09T04:18:51.134Z,3.60
2022-08-09T04:21:19.860Z,3.25
2022-08-09T04:23:53.891Z,2.85
2022-08-09T04:26:23.369Z,3.03
2022-08-09T04:28:54.978Z,3.20
2022-08-09T04:31:37.648Z,3.40
2022-08-09T04:34:14.512Z,3.30
2022-08-09T04:36:50.223Z,3.45
2022-08-09T04:39:17.971Z,3.38
2022-08-09T04:41:46.179Z,3.85
2022-08-09T04:44:14.505Z,3.67
2022-08-09T04:46:59.940Z,4.05
2022-08-09T04:49:53.736Z,3.92
2022-08-09T04:52:27.107Z,4.07
2022-08-09T04:54:56.860Z,3.78
2022-08-09T04:57:25.215Z,3.50
2022-08-09T04:59:54.446Z,4.53
2022-08-09T05:02:22.371Z,4.20
2022-08-09T05:04:55.230Z,5.35
2022-08-09T05:07:23.649Z,5.50
2022-08-09T05:09:51.481Z,4.95
2022-08-09T05:12:19.159Z,5.35
2022-08-09T05:14:50.263Z,4.43
2022-08-09T05:18:50.418Z,4.82
2022-08-09T05:20:05.823Z,4.43
2022-08-09T05:23:50.898Z,4.20
2022-08-09T05:25:25.792Z,4.13
2022-08-09T05:28:00.070Z,4.45
2022-08-09T05:30:31.258Z,4.00
2022-08-09T05:32:58.779Z,3.90
2022-08-09T05:35:26.394Z,3.38
2022-08-09T05:37:57.341Z,3.58
2022-08-09T05:40:28.724Z,3.58
2022-08-09T05:42:57.538Z,3.35
2022-08-09T05:45:25.492Z,3.10
2022-08-09T05:48:11.081Z,3.20
2022-08-09T05:50:51.171Z,3.25
2022-08-09T05:53:33.178Z,3.70
2022-08-09T05:56:02.135Z,3.33
2022-08-09T05:58:29.440Z,3.33
2022-08-09T06:00:56.668Z,2.72
2022-08-09T06:03:44.221Z,2.20
2022-08-09T06:06:17.321Z,2.38
2022-08-09T06:08:44.953Z,2.08
2022-08-09T06:11:20.223Z,2.20
2022-08-09T06:14:08.258Z,2.45
2022-08-09T06:16:35.510Z,2.03
2022-08-09T06:19:02.925Z,1.80
2022-08-09T06:21:32.080Z,2.03
2022-08-09T06:24:01.600Z,1.90
2022-08-09T06:26:30.114Z,2.28
2022-08-09T06:29:05.002Z,2.50
2022-08-09T06:31:40.405Z,2.15
2022-08-09T06:34:22.746Z,2.08
2022-08-09T06:36:57.274Z,2.17
2022-08-09T06:39:57.526Z,2.30
2022-08-09T06:42:17.019Z,2.30
2022-08-09T06:44:53.952Z,2.10
2022-08-09T06:47:22.311Z,2.13
2022-08-09T06:50:13.504Z,2.20
2022-08-09T06:52:46.949Z,2.10
2022-08-09T06:55:17.756Z,2.40
2022-08-09T06:58:03.179Z,2.10
2022-08-09T07:00:49.824Z,2.00
2022-08-09T07:03:28.456Z,2.30
2022-08-09T07:06:03.896Z,1.90
2022-08-09T07:08:33.869Z,2.20
2022-08-09T07:11:03.302Z,2.20
2022-08-09T07:13:31.165Z,2.08
2022-08-09T07:16:40.354Z,2.03
2022-08-09T07:19:00.936Z,2.28
2022-08-09T07:21:30.904Z,2.00
2022-08-09T07:23:58.605Z,2.03
2022-08-09T07:26:26.088Z,1.80
2022-08-09T07:29:09.287Z,2.45
2022-08-09T07:31:45.314Z,1.95
2022-08-09T07:34:20.143Z,1.80
2022-08-09T07:36:49.811Z,2.13
2022-08-09T07:39:20.307Z,2.08
2022-08-09T07:42:06.368Z,2.13
2022-08-09T07:44:51.031Z,2.10
2022-08-09T07:47:39.581Z,1.90
2022-08-09T07:50:11.627Z,1.75
2022-08-09T07:52:41.417Z,1.95
2022-08-09T07:55:11.722Z,1.70
2022-08-09T07:57:46.913Z,1.65
2022-08-09T08:00:20.642Z,1.80
2022-08-09T08:03:05.129Z,1.90
2022-08-09T08:05:39.203Z,1.90
2022-08-09T08:09:00.981Z,2.10
2022-08-09T08:12:10.952Z,1.75
2022-08-09T08:14:00.397Z,1.60
2022-08-09T08:16:32.259Z,1.50
2022-08-09T08:19:03.133Z,1.70
2022-08-09T08:21:32.416Z,1.77
2022-08-09T08:24:01.423Z,1.50
2022-08-09T08:26:54.869Z,1.67
2022-08-09T08:29:28.684Z,1.88
2022-08-09T08:32:07.279Z,1.60
2022-08-09T08:34:40.011Z,1.60
2022-08-09T08:37:15.768Z,1.23
2022-08-09T08:39:47.064Z,1.52
2022-08-09T08:42:14.335Z,1.92
2022-08-09T08:44:44.502Z,1.50
2022-08-09T08:47:15.962Z,1.48
2022-08-09T08:49:47.916Z,1.40
2022-08-09T08:55:08.801Z,1.88
2022-08-09T08:57:38.738Z,1.63
2022-08-09T09:00:17.198Z,1.70
2022-08-09T09:03:08.165Z,1.75
2022-08-09T09:06:00.393Z,1.60
2022-08-09T09:08:40.662Z,1.58
2022-08-09T09:11:13.720Z,1.45
2022-08-09T09:13:56.809Z,1.52
2022-08-09T09:16:30.476Z,1.50
2022-08-09T09:19:29.122Z,1.52
2022-08-09T09:22:04.277Z,1.65
2022-08-09T09:24:38.857Z,2.03
2022-08-09T09:27:08.809Z,1.73
2022-08-09T09:30:10.636Z,1.73
2022-08-09T09:32:34.549Z,1.75
2022-08-09T09:35:09.155Z,1.60
2022-08-09T09:37:40.519Z,2.05
2022-08-09T09:40:11.883Z,1.95
2022-08-09T09:42:43.022Z,1.60
2022-08-09T09:45:14.526Z,1.40
2022-08-09T09:47:56.548Z,1.63
2022-08-09T09:50:49.622Z,1.60
2022-08-09T09:53:21.519Z,1.95
2022-08-09T09:56:04.311Z,1.87
2022-08-09T09:58:46.113Z,1.98
2022-08-09T10:01:37.792Z,1.77
2022-08-09T10:04:16.151Z,1.52
2022-08-09T10:09:24.001Z,1.60
2022-08-09T10:12:12.485Z,1.88
2022-08-09T10:14:50.097Z,1.70
2022-08-09T10:17:54.840Z,2.05
2022-08-09T10:20:35.469Z,2.53
2022-08-09T10:23:23.758Z,2.22
2022-08-09T10:26:06.921Z,1.40
2022-08-09T10:28:40.874Z,2.08
2022-08-09T10:34:08.544Z,1.83
2022-08-09T10:36:40.019Z,1.80
2022-08-09T10:39:15.801Z,1.83
2022-08-09T10:41:48.062Z,1.70
2022-08-09T10:44:21.640Z,1.52
2022-08-09T10:47:20.299Z,1.67
2022-08-09T10:50:10.385Z,1.70
2022-08-09T10:53:04.017Z,1.70
2022-08-09T10:55:49.192Z,2.10
2022-08-09T10:58:37.483Z,1.50
2022-08-09T11:03:06.892Z,1.80
2022-08-09T11:04:19.463Z,1.67
2022-08-09T11:06:59.779Z,1.65
2022-08-09T11:09:48.259Z,1.70
2022-08-09T11:12:17.796Z,1.95
2022-08-09T11:14:49.063Z,1.90
2022-08-09T11:17:19.341Z,1.85
2022-08-09T11:20:11.135Z,1.60
2022-08-09T11:22:55.311Z,1.85
2022-08-09T11:25:47.489Z,1.98
2022-08-09T11:28:38.311Z,1.90
2022-08-09T11:31:43.100Z,1.63
2022-08-09T11:34:20.466Z,1.60
2022-08-09T11:36:49.199Z,1.83
2022-08-09T11:39:16.681Z,1.60
2022-08-09T11:41:45.208Z,1.70
2022-08-09T11:44:13.448Z,1.88
2022-08-09T11:47:01.386Z,1.90
2022-08-09T11:50:53.765Z,1.73
2022-08-09T11:53:57.603Z,1.80
2022-08-09T11:56:21.256Z,1.90
2022-08-09T11:59:10.708Z,1.75
2022-08-09T12:02:17.127Z,1.92
2022-08-09T12:04:32.451Z,1.65
2022-08-09T12:07:08.175Z,1.63
2022-08-09T12:09:36.488Z,1.77
2022-08-09T12:12:12.997Z,2.00
2022-08-09T12:15:04.013Z,1.77
2022-08-09T12:17:44.541Z,2.20
2022-08-09T12:20:22.318Z,2.35
2022-08-09T12:22:56.338Z,1.67
2022-08-09T12:25:32.036Z,1.80
2022-08-09T12:29:10.893Z,1.92
2022-08-09T12:31:01.194Z,2.10
2022-08-09T12:33:50.850Z,1.70
2022-08-09T12:36:32.280Z,1.65
2022-08-09T12:39:01.825Z,2.00
2022-08-09T12:41:38.173Z,1.70
2022-08-09T12:44:10.241Z,1.90
2022-08-09T12:46:49.283Z,1.73
2022-08-09T12:49:18.356Z,1.80
2022-08-09T12:52:03.457Z,1.80
2022-08-09T12:56:10.831Z,1.60
2022-08-09T12:57:47.031Z,1.52
2022-08-09T13:00:19.170Z,1.70
2022-08-09T13:02:55.741Z,1.50
2022-08-09T13:05:27.218Z,1.75
2022-08-09T13:08:21.283Z,1.77
2022-08-09T13:11:13.154Z,1.80
2022-08-09T13:14:36.911Z,1.83
2022-08-09T13:16:49.675Z,1.70
2022-08-09T13:20:07.801Z,1.60
2022-08-09T13:22:36.264Z,2.17
2022-08-09T13:25:15.126Z,1.75
2022-08-09T13:27:48.296Z,2.00
2022-08-09T13:30:51.032Z,1.95
2022-08-09T13:33:22.446Z,2.10
2022-08-09T13:36:39.553Z,1.90
2022-08-09T13:38:56.654Z,1.73
2022-08-09T13:41:55.684Z,2.10
2022-08-09T13:44:13.765Z,1.90
2022-08-09T13:47:26.412Z,2.30
2022-08-09T13:49:35.278Z,2.13
2022-08-09T13:52:09.298Z,2.45
2022-08-09T13:54:43.103Z,2.63
2022-08-09T13:57:35.961Z,2.63
2022-08-09T14:00:10.618Z,2.58
2022-08-09T14:02:42.899Z,2.60
2022-08-09T14:06:00.090Z,2.60
2022-08-09T14:08:20.685Z,2.10
2022-08-09T14:10:50.624Z,2.30
2022-08-09T14:13:28.267Z,2.40
2022-08-09T14:16:14.022Z,3.03
2022-08-09T14:18:45.276Z,2.63
2022-08-09T14:21:18.102Z,2.72
2022-08-09T14:23:54.215Z,2.70
2022-08-09T14:26:30.238Z,2.47
2022-08-09T14:29:07.433Z,3.10
2022-08-09T14:31:49.904Z,2.85
2022-08-09T14:34:30.891Z,2.70
2022-08-09T14:37:06.772Z,2.10
2022-08-09T14:39:45.911Z,2.83
2022-08-09T14:42:39.374Z,2.55
2022-08-09T14:46:54.155Z,2.30
2022-08-09T14:48:00.281Z,2.70
2022-08-09T14:50:32.580Z,2.85
2022-08-09T14:53:02.363Z,2.20
2022-08-09T14:55:32.720Z,2.65
2022-08-09T14:58:05.110Z,2.40
2022-08-09T15:00:36.494Z,2.13
2022-08-09T15:03:06.735Z,2.10
2022-08-09T15:05:34.729Z,2.25
2022-08-09T15:08:06.402Z,2.20
2022-08-09T15:13:09.003Z,2.20
2022-08-09T15:15:38.973Z,2.63
2022-08-09T15:18:12.426Z,2.22
2022-08-09T15:21:54.854Z,2.35
2022-08-09T15:24:00.798Z,2.10
2022-08-09T15:26:31.246Z,2.38
2022-08-09T15:29:04.276Z,2.22
2022-08-09T15:31:41.771Z,2.30
2022-08-09T15:34:33.038Z,2.28
2022-08-09T15:36:58.557Z,2.40
2022-08-09T15:39:43.954Z,2.63
2022-08-09T15:42:14.986Z,2.92
2022-08-09T15:44:42.669Z,2.40
2022-08-09T15:47:14.558Z,2.55
2022-08-09T15:50:00.727Z,2.78
2022-08-09T15:52:32.824Z,2.90
2022-08-09T15:55:01.099Z,2.10
2022-08-09T15:57:34.568Z,2.15
2022-08-09T16:00:08.572Z,1.92
2022-08-09T16:02:38.588Z,2.50
2022-08-09T16:05:08.799Z,2.78
2022-08-09T16:07:38.801Z,2.38
2022-08-09T16:10:11.423Z,2.17
2022-08-09T16:12:57.815Z,2.28
2022-08-09T16:16:10.202Z,2.15
2022-08-09T16:18:16.436Z,2.45
2022-08-09T16:20:43.913Z,2.05
2022-08-09T16:23:14.483Z,2.10
2022-08-09T16:25:49.813Z,1.98
2022-08-09T16:28:17.331Z,2.00
2022-08-09T16:30:59.083Z,2.10
2022-08-09T16:33:27.532Z,2.30
2022-08-09T16:36:01.916Z,2.30
2022-08-09T16:38:40.224Z,2.40
2022-08-09T16:41:08.032Z,2.30
2022-08-09T16:46:13.152Z,1.98
2022-08-09T16:48:56.530Z,2.00
2022-08-09T16:51:28.384Z,2.30
2022-08-09T16:54:25.340Z,2.03
2022-08-09T16:56:49.432Z,2.03
2022-08-09T16:59:18.057Z,2.00
2022-08-09T17:01:49.034Z,2.00
2022-08-09T17:04:25.662Z,2.33
2022-08-09T17:08:46.751Z,2.10
2022-08-09T17:09:46.037Z,2.40
2022-08-09T17:12:14.898Z,2.10
2022-08-09T17:14:46.314Z,1.70
2022-08-09T17:17:26.707Z,2.17
2022-08-09T17:20:30.202Z,2.33
2022-08-09T17:22:49.548Z,1.77
2022-08-09T17:25:18.924Z,2.00
2022-08-09T17:27:48.706Z,2.00
2022-08-09T17:30:17.232Z,2.22
2022-08-09T17:32:47.164Z,2.00
2022-08-09T17:35:15.060Z,2.08
2022-08-09T17:38:10.183Z,1.80
2022-08-09T17:40:34.641Z,2.05
2022-08-09T17:43:32.429Z,2.10
2022-08-09T17:46:03.202Z,1.95
2022-08-09T17:48:35.061Z,2.00
2022-08-09T17:51:18.821Z,2.10
2022-08-09T17:53:54.986Z,2.00
2022-08-09T17:56:27.620Z,2.05
2022-08-09T17:58:59.557Z,1.73
2022-08-09T18:02:03.499Z,1.77
2022-08-09T18:04:20.406Z,1.80
2022-08-09T18:06:55.030Z,1.73
2022-08-09T18:09:40.036Z,1.90
2022-08-09T18:12:15.003Z,2.05
2022-08-09T18:14:53.390Z,1.80
2022-08-09T18:17:27.633Z,2.08
2022-08-09T18:20:54.793Z,1.80
2022-08-09T18:22:59.790Z,1.58
2022-08-09T18:25:50.679Z,1.80
2022-08-09T18:30:35.554Z,1.80
2022-08-09T18:31:06.741Z,2.08
2022-08-09T18:33:34.618Z,1.70
2022-08-09T18:36:02.114Z,1.95
2022-08-09T18:38:29.505Z,1.80
2022-08-09T18:40:58.790Z,2.08
2022-08-09T18:43:26.154Z,1.75
2022-08-09T18:46:47.571Z,1.80
2022-08-09T18:48:42.411Z,2.00
2022-08-09T18:51:10.392Z,1.80
2022-08-09T18:53:56.372Z,1.70
2022-08-09T18:56:28.147Z,1.70
2022-08-09T18:58:57.533Z,2.00
2022-08-09T19:01:28.906Z,1.70
2022-08-09T19:04:11.207Z,1.88
2022-08-09T19:06:39.170Z,1.45
2022-08-09T19:09:34.207Z,1.90
2022-08-09T19:12:07.787Z,1.77
2022-08-09T19:14:37.710Z,1.80
2022-08-09T19:17:05.224Z,1.50
2022-08-09T19:19:41.682Z,1.75
2022-08-09T19:22:09.412Z,1.80
2022-08-09T19:25:11.419Z,1.70
2022-08-09T19:27:28.568Z,2.00
2022-08-09T19:30:25.033Z,1.65
2022-08-09T19:32:44.972Z,1.50
2022-08-09T19:35:12.358Z,1.50
2022-08-09T19:37:54.095Z,1.75
2022-08-09T19:40:22.853Z,1.60
2022-08-09T19:42:50.423Z,1.75
2022-08-09T19:45:17.728Z,1.60
2022-08-09T19:47:46.519Z,1.92
2022-08-09T19:50:50.985Z,1.77
2022-08-09T19:53:02.355Z,1.75
2022-08-09T19:56:02.340Z,1.30
2022-08-09T19:58:29.725Z,1.60
2022-08-09T20:00:58.480Z,1.40
2022-08-09T20:04:18.428Z,1.30
2022-08-09T20:06:23.217Z,1.70
2022-08-09T20:08:56.538Z,1.65
2022-08-09T20:11:26.971Z,1.50
2022-08-09T20:13:55.854Z,1.42
2022-08-09T20:16:34.153Z,1.27
2022-08-09T20:19:49.394Z,1.60
2022-08-09T20:21:57.416Z,1.60
2022-08-09T20:24:31.788Z,1.40
2022-08-09T20:27:03.034Z,1.65
2022-08-09T20:29:37.746Z,1.65
2022-08-09T20:32:31.130Z,1.38
2022-08-09T20:34:58.396Z,1.63
2022-08-09T20:38:18.992Z,1.30
2022-08-09T20:40:19.245Z,1.40
2022-08-09T20:42:59.687Z,1.70
2022-08-09T20:46:02.031Z,1.42
2022-08-09T20:48:21.391Z,1.48
2022-08-09T20:50:54.281Z,1.38
2022-08-09T20:53:36.147Z,1.55
2022-08-09T20:56:08.902Z,1.40
2022-08-09T20:58:36.449Z,1.60
2022-08-09T21:01:33.487Z,1.52
2022-08-09T21:05:49.013Z,1.40
2022-08-09T21:06:44.526Z,1.50
2022-08-09T21:09:13.907Z,1.30
2022-08-09T21:14:30.838Z,1.35
2022-08-09T21:17:01.238Z,1.20
2022-08-09T21:20:17.206Z,1.40
2022-08-09T21:22:35.729Z,1.48
2022-08-09T21:25:25.350Z,1.60
2022-08-09T21:27:53.402Z,1.25
2022-08-09T21:30:25.000Z,1.30
2022-08-09T21:32:53.270Z,1.50
2022-08-09T21:35:21.575Z,1.73
2022-08-09T21:37:59.566Z,1.75
2022-08-09T21:40:30.896Z,2.42
2022-08-09T21:43:01.244Z,2.35
2022-08-09T21:45:28.985Z,2.50
2022-08-09T21:47:59.226Z,2.47
2022-08-09T21:50:38.974Z,2.72
2022-08-09T21:53:19.926Z,2.83
2022-08-09T21:56:03.610Z,2.63
2022-08-09T21:58:31.269Z,2.97
2022-08-09T22:00:59.292Z,2.75
2022-08-09T22:03:27.053Z,2.40
2022-08-09T22:05:55.184Z,2.70
2022-08-09T22:08:25.905Z,2.42
2022-08-09T22:11:50.317Z,2.35
2022-08-09T22:13:43.918Z,2.33
2022-08-09T22:16:11.949Z,2.42
2022-08-09T22:18:54.457Z,2.30
2022-08-09T22:21:27.461Z,2.40
2022-08-09T22:24:16.966Z,2.70
2022-08-09T22:26:51.804Z,2.70
2022-08-09T22:29:22.992Z,2.70
2022-08-09T22:31:57.554Z,2.97
2022-08-09T22:34:27.155Z,2.42
2022-08-09T22:36:56.468Z,2.90
2022-08-09T22:39:56.060Z,2.95
2022-08-09T22:42:21.465Z,2.70
2022-08-09T22:45:00.287Z,2.80
2022-08-09T22:48:34.330Z,2.53
2022-08-09T22:50:29.874Z,2.28
2022-08-09T22:52:58.177Z,2.90
2022-08-09T22:55:33.616Z,2.58
2022-08-09T22:58:07.764Z,2.50
2022-08-09T23:00:37.454Z,2.58
2022-08-09T23:03:04.775Z,2.72
2022-08-09T23:05:40.384Z,3.00
2022-08-09T23:08:33.287Z,2.90
2022-08-09T23:11:01.625Z,2.60
2022-08-09T23:13:28.826Z,2.58
2022-08-09T23:16:03.060Z,2.95
2022-08-09T23:18:31.460Z,2.28
2022-08-09T23:20:58.626Z,2.42
2022-08-09T23:23:25.906Z,2.50
2022-08-09T23:25:53.005Z,2.63
2022-08-09T23:28:21.161Z,2.58
2022-08-09T23:30:50.854Z,3.00
2022-08-09T23:33:20.547Z,2.85
2022-08-09T23:36:05.048Z,2.42
2022-08-09T23:38:36.001Z,2.53
2022-08-09T23:41:28.501Z,2.70
2022-08-09T23:43:58.383Z,2.60
2022-08-09T23:46:26.300Z,2.85
2022-08-09T23:48:53.651Z,2.63
2022-08-09T23:51:20.953Z,2.70
2022-08-09T23:53:52.335Z,2.65
2022-08-09T23:56:51.947Z,2.53
2022-08-09T23:59:07.230Z,2.45
